createdAt,value
2022-12-17T00:02:04.128Z,-0.30
2022-12-17T00:04:53.482Z,-0.40
2022-12-17T00:07:42.163Z,-0.40
2022-12-17T00:10:42.557Z,-0.50
2022-12-17T00:13:39.991Z,-0.50
2022-12-17T00:16:26.896Z,-0.50
2022-12-17T00:19:12.687Z,-0.50
2022-12-17T00:22:00.685Z,-0.50
2022-12-17T00:24:47.016Z,-0.60
2022-12-17T00:27:32.536Z,-0.60
2022-12-17T00:30:18.610Z,-0.50
2022-12-17T00:33:04.890Z,-0.50
2022-12-17T00:35:52.376Z,-0.50
2022-12-17T00:38:39.355Z,-0.50
2022-12-17T00:41:24.931Z,-0.50
2022-12-17T00:44:11.359Z,-0.50
2022-12-17T00:46:57.063Z,-0.50
2022-12-17T00:49:48.633Z,-0.50
2022-12-17T00:52:37.313Z,-0.60
2022-12-17T00:55:23.952Z,-0.60
2022-12-17T00:58:14.820Z,-0.60
2022-12-17T01:01:03.095Z,-0.60
2022-12-17T01:03:49.604Z,-0.60
2022-12-17T01:06:38.699Z,-0.60
2022-12-17T01:09:29.243Z,-0.70
2022-12-17T01:12:15.955Z,-0.70
2022-12-17T01:15:04.848Z,-0.70
2022-12-17T01:17:51.309Z,-0.80
2022-12-17T01:20:45.318Z,-0.80
2022-12-17T01:23:31.561Z,-0.80
2022-12-17T01:26:20.010Z,-0.70
2022-12-17T01:29:05.461Z,-0.80
2022-12-17T01:31:50.968Z,-0.70
2022-12-17T01:34:36.337Z,-0.80
2022-12-17T01:37:42.043Z,-0.80
2022-12-17T01:40:28.156Z,-0.80
2022-12-17T01:43:13.642Z,-0.80
2022-12-17T01:46:03.807Z,-0.80
2022-12-17T01:48:56.405Z,-0.80
2022-12-17T01:51:43.739Z,-0.80
2022-12-17T01:54:29.845Z,-0.80
2022-12-17T01:57:17.254Z,-0.80
2022-12-17T02:00:18.106Z,-0.80
2022-12-17T02:03:03.890Z,-0.70
2022-12-17T02:05:59.925Z,-0.80
2022-12-17T02:09:08.969Z,-0.90
2022-12-17T02:12:28.186Z,-0.90
2022-12-17T02:15:44.276Z,-0.90
2022-12-17T02:18:41.580Z,-0.90
2022-12-17T02:21:31.374Z,-0.90
2022-12-17T02:24:47.665Z,-1.00
2022-12-17T02:27:33.959Z,-0.90
2022-12-17T02:30:23.957Z,-1.00
2022-12-17T02:33:11.501Z,-1.00
2022-12-17T02:36:03.172Z,-1.00
2022-12-17T02:38:51.555Z,-1.10
2022-12-17T02:41:45.297Z,-1.10
2022-12-17T02:44:33.544Z,-1.10
2022-12-17T02:47:24.302Z,-1.20
2022-12-17T02:50:10.701Z,-1.20
2022-12-17T02:53:14.227Z,-1.20
2022-12-17T02:56:01.512Z,-1.20
2022-12-17T02:58:48.335Z,-1.30
2022-12-17T03:01:35.532Z,-1.30
2022-12-17T03:04:24.543Z,-1.40
2022-12-17T03:07:12.289Z,-1.40
2022-12-17T03:09:59.984Z,-1.40
2022-12-17T03:12:46.205Z,-1.30
2022-12-17T03:15:31.725Z,-1.30
2022-12-17T03:18:17.056Z,-1.30
2022-12-17T03:21:02.472Z,-1.40
2022-12-17T03:23:50.003Z,-1.50
2022-12-17T03:26:35.478Z,-1.50
2022-12-17T03:29:21.469Z,-1.40
2022-12-17T03:32:07.198Z,-1.50
2022-12-17T03:34:57.325Z,-1.50
2022-12-17T03:37:42.986Z,-1.50
2022-12-17T03:40:35.027Z,-1.50
2022-12-17T03:43:31.216Z,-1.50
2022-12-17T03:46:18.874Z,-1.60
2022-12-17T03:49:08.471Z,-1.50
2022-12-17T03:51:54.120Z,-1.50
2022-12-17T03:54:39.862Z,-1.50
2022-12-17T03:57:28.210Z,-1.50
2022-12-17T04:00:14.441Z,-1.40
2022-12-17T04:03:00.379Z,-1.40
2022-12-17T04:05:50.929Z,-1.40
2022-12-17T04:08:50.333Z,-1.40
2022-12-17T04:11:36.169Z,-1.40
2022-12-17T04:14:21.590Z,-1.40
2022-12-17T04:17:08.638Z,-1.50
2022-12-17T04:19:56.039Z,-1.60
2022-12-17T04:22:41.572Z,-1.60
2022-12-17T04:25:29.156Z,-1.70
2022-12-17T04:28:14.306Z,-1.70
2022-12-17T04:31:00.328Z,-1.70
2022-12-17T04:33:48.800Z,-1.80
2022-12-17T04:36:36.693Z,-1.80
2022-12-17T04:39:22.396Z,-1.90
2022-12-17T04:42:08.762Z,-1.80
2022-12-17T04:44:55.557Z,-1.70
2022-12-17T04:47:41.209Z,-1.70
2022-12-17T04:50:31.203Z,-1.80
2022-12-17T04:53:21.814Z,-1.80
2022-12-17T04:56:07.598Z,-1.90
2022-12-17T04:58:53.020Z,-1.90
2022-12-17T05:01:39.323Z,-1.90
2022-12-17T05:04:27.499Z,-1.90
2022-12-17T05:07:12.802Z,-1.80
2022-12-17T05:09:59.988Z,-1.80
2022-12-17T05:12:45.593Z,-1.80
2022-12-17T05:15:33.343Z,-1.90
2022-12-17T05:18:27.409Z,-1.90
2022-12-17T05:21:14.551Z,-1.90
2022-12-17T05:24:00.333Z,-1.90
2022-12-17T05:26:47.729Z,-1.80
2022-12-17T05:29:33.387Z,-1.80
2022-12-17T05:32:18.879Z,-1.70
2022-12-17T05:35:04.391Z,-1.90
2022-12-17T05:37:50.447Z,-2.00
2022-12-17T05:40:42.570Z,-2.00
2022-12-17T05:43:31.584Z,-2.10
2022-12-17T05:46:17.020Z,-2.10
2022-12-17T05:49:05.182Z,-2.10
2022-12-17T05:51:50.605Z,-2.10
2022-12-17T05:54:36.123Z,-2.10
2022-12-17T05:57:21.940Z,-2.00
2022-12-17T06:00:08.492Z,-2.10
2022-12-17T06:03:01.440Z,-2.00
2022-12-17T06:05:46.869Z,-2.10
2022-12-17T06:08:32.511Z,-2.10
2022-12-17T06:11:18.913Z,-2.10
2022-12-17T06:14:05.994Z,-2.20
2022-12-17T06:16:53.158Z,-2.20
2022-12-17T06:19:38.861Z,-2.20
2022-12-17T06:22:28.903Z,-2.30
2022-12-17T06:25:14.572Z,-2.20
2022-12-17T06:28:00.132Z,-2.30
2022-12-17T06:30:45.783Z,-2.40
2022-12-17T06:33:31.441Z,-2.40
2022-12-17T06:36:22.460Z,-2.40
2022-12-17T06:39:08.237Z,-2.20
2022-12-17T06:42:00.582Z,-2.20
2022-12-17T06:44:49.256Z,-2.20
2022-12-17T06:47:34.953Z,-2.20
2022-12-17T06:50:22.079Z,-2.30
2022-12-17T06:53:15.547Z,-2.40
2022-12-17T06:56:17.668Z,-2.50
2022-12-17T06:59:03.386Z,-2.50
2022-12-17T07:01:49.020Z,-2.50
2022-12-17T07:04:34.973Z,-2.50
2022-12-17T07:07:20.591Z,-2.50
2022-12-17T07:10:10.718Z,-2.50
2022-12-17T07:13:00.180Z,-2.60
2022-12-17T07:15:45.960Z,-2.70
2022-12-17T07:18:31.250Z,-2.70
2022-12-17T07:21:16.802Z,-2.70
2022-12-17T07:24:02.536Z,-2.70
2022-12-17T07:26:48.051Z,-2.70
2022-12-17T07:29:34.555Z,-2.70
2022-12-17T07:32:20.048Z,-2.70
2022-12-17T07:35:05.503Z,-2.80
2022-12-17T07:37:50.965Z,-2.70
2022-12-17T07:40:38.556Z,-2.70
2022-12-17T07:43:32.643Z,-2.70
2022-12-17T07:46:18.838Z,-2.80
2022-12-17T07:49:04.696Z,-2.70
2022-12-17T07:51:50.030Z,-2.80
2022-12-17T07:54:35.441Z,-2.80
2022-12-17T07:57:21.146Z,-2.80
2022-12-17T08:00:06.592Z,-2.70
2022-12-17T08:02:52.218Z,-2.70
2022-12-17T08:05:37.665Z,-2.70
2022-12-17T08:08:27.697Z,-2.60
2022-12-17T08:11:13.255Z,-2.60
2022-12-17T08:14:00.725Z,-2.50
2022-12-17T08:16:50.003Z,-2.50
2022-12-17T08:19:35.548Z,-2.40
2022-12-17T08:22:21.130Z,-2.50
2022-12-17T08:25:06.734Z,-2.50
2022-12-17T08:27:52.429Z,-2.50
2022-12-17T08:30:37.865Z,-2.50
2022-12-17T08:33:24.262Z,-2.40
2022-12-17T08:36:14.730Z,-2.40
2022-12-17T08:39:00.486Z,-2.40
2022-12-17T08:41:51.120Z,-2.30
2022-12-17T08:44:39.722Z,-2.10
2022-12-17T08:47:25.321Z,-2.00
2022-12-17T08:50:10.841Z,-2.00
2022-12-17T08:52:56.499Z,-2.00
2022-12-17T08:55:42.281Z,-2.00
2022-12-17T08:58:27.660Z,-2.00
2022-12-17T09:01:16.340Z,-2.00
2022-12-17T09:04:02.130Z,-2.00
2022-12-17T09:06:47.516Z,-1.90
2022-12-17T09:09:37.508Z,-1.70
2022-12-17T09:12:23.226Z,-1.60
2022-12-17T09:15:08.658Z,-1.40
2022-12-17T09:17:54.147Z,-1.30
2022-12-17T09:20:39.769Z,-1.20
2022-12-17T09:23:25.027Z,-1.10
2022-12-17T09:26:14.656Z,-1.00
2022-12-17T09:29:00.307Z,-1.20
2022-12-17T09:31:45.871Z,-1.20
2022-12-17T09:34:31.497Z,-1.20
2022-12-17T09:37:17.017Z,-1.20
2022-12-17T09:40:02.526Z,-1.20
2022-12-17T09:42:59.792Z,-1.20
2022-12-17T09:45:48.483Z,-1.00
2022-12-17T09:48:56.475Z,-0.90
2022-12-17T09:51:45.470Z,-0.80
2022-12-17T09:54:43.710Z,-0.70
2022-12-17T09:57:32.624Z,-0.70
2022-12-17T10:00:18.195Z,-0.60
2022-12-17T10:03:04.049Z,-0.50
2022-12-17T10:05:50.901Z,-0.50
2022-12-17T10:08:40.060Z,-0.50
2022-12-17T10:11:41.665Z,-0.50
2022-12-17T10:14:38.558Z,-0.50
2022-12-17T10:17:24.525Z,-0.40
2022-12-17T10:20:13.546Z,-0.30
2022-12-17T10:23:04.364Z,-0.20
2022-12-17T10:25:50.063Z,-0.10
2022-12-17T10:28:42.117Z,0.00
2022-12-17T10:31:37.011Z,0.10
2022-12-17T10:34:33.093Z,0.40
2022-12-17T10:37:18.718Z,0.30
2022-12-17T10:40:17.813Z,0.50
2022-12-17T10:43:04.135Z,0.50
2022-12-17T10:45:52.766Z,0.70
2022-12-17T10:48:46.146Z,0.80
2022-12-17T10:51:40.125Z,0.90
2022-12-17T10:54:42.652Z,1.00
2022-12-17T10:57:56.083Z,1.00
2022-12-17T11:00:49.676Z,1.00
2022-12-17T11:04:09.882Z,1.00
2022-12-17T11:07:01.229Z,1.10
2022-12-17T11:10:10.348Z,1.40
2022-12-17T11:13:03.745Z,1.60
2022-12-17T11:16:14.886Z,1.60
2022-12-17T11:19:28.226Z,1.60
2022-12-17T11:22:22.295Z,1.60
2022-12-17T11:25:31.906Z,1.60
2022-12-17T11:28:39.052Z,1.60
2022-12-17T11:31:36.427Z,1.70
2022-12-17T11:35:03.354Z,1.60
2022-12-17T11:37:59.758Z,1.70
2022-12-17T11:40:58.553Z,1.70
2022-12-17T11:44:17.256Z,1.80
2022-12-17T11:47:26.209Z,1.80
2022-12-17T11:50:44.073Z,2.00
2022-12-17T11:54:12.411Z,2.20
2022-12-17T11:57:02.505Z,1.80
2022-12-17T11:59:57.009Z,1.70
2022-12-17T12:03:01.332Z,1.70
2022-12-17T12:06:08.376Z,1.70
2022-12-17T12:09:18.627Z,1.70
2022-12-17T12:12:19.894Z,1.50
2022-12-17T12:15:39.220Z,1.50
2022-12-17T12:18:37.194Z,1.50
2022-12-17T12:21:57.008Z,1.20
2022-12-17T12:24:57.727Z,1.00
2022-12-17T12:28:25.191Z,0.90
2022-12-17T12:31:36.924Z,0.90
2022-12-17T12:34:31.960Z,0.70
2022-12-17T12:37:20.485Z,0.70
2022-12-17T12:40:14.343Z,0.70
2022-12-17T12:43:08.609Z,0.70
2022-12-17T12:46:17.146Z,0.80
2022-12-17T12:49:23.681Z,0.90
2022-12-17T12:52:13.879Z,0.90
2022-12-17T12:55:05.342Z,0.90
2022-12-17T12:57:56.570Z,1.00
2022-12-17T13:00:43.775Z,1.20
2022-12-17T13:04:07.004Z,1.30
2022-12-17T13:06:49.477Z,1.50
2022-12-17T13:09:16.262Z,1.50
2022-12-17T13:12:20.968Z,1.40
2022-12-17T13:15:06.457Z,1.30
2022-12-17T13:17:56.136Z,1.20
2022-12-17T13:20:34.293Z,1.10
2022-12-17T13:23:14.274Z,1.00
2022-12-17T13:25:41.449Z,1.00
2022-12-17T13:28:28.437Z,1.00
2022-12-17T13:31:13.969Z,1.00
2022-12-17T13:34:12.620Z,0.90
2022-12-17T13:36:48.023Z,0.80
2022-12-17T13:39:53.141Z,0.70
2022-12-17T13:42:30.569Z,0.60
2022-12-17T13:44:59.223Z,0.50
2022-12-17T13:47:30.719Z,0.50
2022-12-17T13:52:47.723Z,0.70
2022-12-17T13:55:29.013Z,0.80
2022-12-17T13:57:56.614Z,0.80
2022-12-17T14:00:24.864Z,0.70
2022-12-17T14:02:53.211Z,0.60
2022-12-17T14:05:24.750Z,0.60
2022-12-17T14:07:52.877Z,0.60
2022-12-17T14:10:20.355Z,0.60
2022-12-17T14:12:47.556Z,0.50
2022-12-17T14:15:25.588Z,0.60
2022-12-17T14:17:53.764Z,0.50
2022-12-17T14:20:22.297Z,0.50
2022-12-17T14:22:59.973Z,0.50
2022-12-17T14:25:33.968Z,0.60
2022-12-17T14:28:04.582Z,0.50
2022-12-17T14:30:42.864Z,0.40
2022-12-17T14:33:31.715Z,0.40
2022-12-17T14:36:08.536Z,0.40
2022-12-17T14:38:38.725Z,0.40
2022-12-17T14:41:30.875Z,0.40
2022-12-17T14:44:00.709Z,0.40
2022-12-17T14:46:29.491Z,0.40
2022-12-17T14:49:01.127Z,0.30
2022-12-17T14:51:38.544Z,0.10
2022-12-17T14:54:19.529Z,0.00
2022-12-17T14:56:48.625Z,-0.10
2022-12-17T14:59:45.025Z,-0.10
2022-12-17T15:02:20.903Z,0.00
2022-12-17T15:04:47.786Z,0.00
2022-12-17T15:07:22.508Z,-0.10
2022-12-17T15:09:49.357Z,-0.10
2022-12-17T15:12:16.077Z,-0.20
2022-12-17T15:14:42.873Z,-0.30
2022-12-17T15:17:09.764Z,-0.40
2022-12-17T15:19:36.567Z,-0.40
2022-12-17T15:22:04.317Z,-0.40
2022-12-17T15:24:31.063Z,-0.30
2022-12-17T15:26:57.799Z,-0.20
2022-12-17T15:29:24.619Z,-0.20
2022-12-17T15:31:51.382Z,-0.10
2022-12-17T15:34:18.048Z,-0.10
2022-12-17T15:36:44.776Z,-0.20
2022-12-17T15:39:11.546Z,-0.40
2022-12-17T15:41:56.849Z,-0.40
2022-12-17T15:44:23.568Z,-0.40
2022-12-17T15:46:50.306Z,-0.40
2022-12-17T15:49:17.046Z,-0.50
2022-12-17T15:51:43.692Z,-0.60
2022-12-17T15:54:10.326Z,-0.60
2022-12-17T15:56:37.143Z,-0.60
2022-12-17T15:59:04.105Z,-0.50
2022-12-17T16:01:30.974Z,-0.50
2022-12-17T16:04:13.832Z,-0.60
2022-12-17T16:06:43.607Z,-0.60
2022-12-17T16:09:10.289Z,-0.50
2022-12-17T16:11:38.131Z,-0.50
2022-12-17T16:14:04.865Z,-0.50
2022-12-17T16:16:31.696Z,-0.50
2022-12-17T16:18:58.633Z,-0.40
2022-12-17T16:21:25.313Z,-0.50
2022-12-17T16:23:52.085Z,-0.50
2022-12-17T16:26:18.896Z,-0.50
2022-12-17T16:28:45.888Z,-0.60
2022-12-17T16:31:14.790Z,-0.50
2022-12-17T16:33:43.690Z,-0.60
2022-12-17T16:36:15.897Z,-0.60
2022-12-17T16:38:50.887Z,-0.70
2022-12-17T16:41:18.001Z,-0.70
2022-12-17T16:43:45.527Z,-0.70
2022-12-17T16:46:28.741Z,-0.70
2022-12-17T16:48:56.841Z,-0.70
2022-12-17T16:51:29.336Z,-0.60
2022-12-17T16:53:57.802Z,-0.60
2022-12-17T16:56:28.012Z,-0.70
2022-12-17T16:58:55.447Z,-0.80
2022-12-17T17:01:25.624Z,-0.80
2022-12-17T17:03:53.216Z,-0.80
2022-12-17T17:06:20.133Z,-0.80
2022-12-17T17:08:47.496Z,-0.90
2022-12-17T17:11:21.424Z,-1.00
2022-12-17T17:13:50.041Z,-0.90
2022-12-17T17:16:18.438Z,-0.90
2022-12-17T17:18:45.817Z,-0.90
2022-12-17T17:21:14.262Z,-1.00
2022-12-17T17:23:41.638Z,-0.90
2022-12-17T17:26:09.447Z,-0.90
2022-12-17T17:28:36.668Z,-0.90
2022-12-17T17:31:05.724Z,-0.90
2022-12-17T17:33:38.503Z,-0.80
2022-12-17T17:36:11.182Z,-0.90
2022-12-17T17:38:40.217Z,-0.90
2022-12-17T17:41:10.303Z,-0.90
2022-12-17T17:43:37.106Z,-0.90
2022-12-17T17:46:05.814Z,-0.90
2022-12-17T17:48:35.542Z,-0.80
2022-12-17T17:51:06.986Z,-0.80
2022-12-17T17:53:33.967Z,-0.80
2022-12-17T17:56:05.976Z,-0.80
2022-12-17T17:58:34.268Z,-0.70
2022-12-17T18:01:09.157Z,-0.70
2022-12-17T18:03:38.005Z,-0.60
2022-12-17T18:06:07.045Z,-0.70
2022-12-17T18:08:38.313Z,-0.80
2022-12-17T18:11:08.157Z,-0.70
2022-12-17T18:13:53.467Z,-0.80
2022-12-17T18:16:31.392Z,-0.80
2022-12-17T18:19:08.004Z,-0.90
2022-12-17T18:21:35.702Z,-0.90
2022-12-17T18:24:17.055Z,-0.90
2022-12-17T18:26:45.629Z,-1.00
2022-12-17T18:29:16.967Z,-0.90
2022-12-17T18:31:51.478Z,-0.80
2022-12-17T18:34:21.628Z,-0.90
2022-12-17T18:37:06.499Z,-0.90
2022-12-17T18:39:33.243Z,-0.80
2022-12-17T18:42:18.679Z,-0.70
2022-12-17T18:44:45.485Z,-0.70
2022-12-17T18:47:12.272Z,-0.70
2022-12-17T18:49:39.472Z,-0.70
2022-12-17T18:52:09.381Z,-0.60
2022-12-17T18:54:39.647Z,-0.70
2022-12-17T18:57:06.325Z,-0.70
2022-12-17T18:59:33.296Z,-0.70
2022-12-17T19:02:00.150Z,-0.70
2022-12-17T19:04:27.411Z,-0.70
2022-12-17T19:06:54.868Z,-0.70
2022-12-17T19:09:25.426Z,-0.70
2022-12-17T19:11:53.459Z,-0.70
2022-12-17T19:14:22.330Z,-0.90
2022-12-17T19:16:49.949Z,-0.90
2022-12-17T19:19:17.292Z,-1.00
2022-12-17T19:21:44.334Z,-1.00
2022-12-17T19:24:15.980Z,-1.10
2022-12-17T19:26:43.582Z,-1.10
2022-12-17T19:29:15.320Z,-1.10
2022-12-17T19:31:42.585Z,-1.20
2022-12-17T19:34:14.804Z,-1.30
2022-12-17T19:36:42.981Z,-1.40
2022-12-17T19:39:14.258Z,-1.40
2022-12-17T19:41:41.014Z,-1.40
2022-12-17T19:44:12.487Z,-1.30
2022-12-17T19:46:41.123Z,-1.30
2022-12-17T19:49:10.917Z,-1.40
2022-12-17T19:51:39.575Z,-1.40
2022-12-17T19:54:08.802Z,-1.40
2022-12-17T19:56:36.400Z,-1.30
2022-12-17T19:59:07.422Z,-1.30
2022-12-17T20:01:37.384Z,-1.30
2022-12-17T20:04:04.907Z,-1.30
2022-12-17T20:06:33.459Z,-1.30
2022-12-17T20:09:01.365Z,-1.30
2022-12-17T20:11:34.593Z,-1.30
2022-12-17T20:14:06.906Z,-1.30
2022-12-17T20:16:40.784Z,-1.30
2022-12-17T20:19:11.065Z,-1.30
2022-12-17T20:21:38.127Z,-1.40
2022-12-17T20:24:05.732Z,-1.30
2022-12-17T20:26:32.867Z,-1.30
2022-12-17T20:28:59.873Z,-1.40
2022-12-17T20:31:27.419Z,-1.30
2022-12-17T20:33:54.418Z,-1.40
2022-12-17T20:36:22.427Z,-1.30
2022-12-17T20:38:49.731Z,-1.30
2022-12-17T20:41:19.156Z,-1.40
2022-12-17T20:43:46.119Z,-1.40
2022-12-17T20:46:13.258Z,-1.40
2022-12-17T20:48:42.113Z,-1.40
2022-12-17T20:51:15.856Z,-1.50
2022-12-17T20:53:43.499Z,-1.50
2022-12-17T20:56:15.625Z,-1.40
2022-12-17T20:58:42.981Z,-1.30
2022-12-17T21:01:16.747Z,-1.30
2022-12-17T21:03:44.041Z,-1.30
2022-12-17T21:06:12.836Z,-1.40
2022-12-17T21:08:46.316Z,-1.40
2022-12-17T21:11:18.322Z,-1.40
2022-12-17T21:13:46.651Z,-1.50
2022-12-17T21:16:16.118Z,-1.50
2022-12-17T21:18:42.992Z,-1.50
2022-12-17T21:21:13.828Z,-1.40
2022-12-17T21:23:41.254Z,-1.40
2022-12-17T21:26:14.426Z,-1.40
2022-12-17T21:28:43.241Z,-1.40
2022-12-17T21:31:20.012Z,-1.40
2022-12-17T21:33:50.360Z,-1.40
2022-12-17T21:36:20.520Z,-1.40
2022-12-17T21:38:48.350Z,-1.50
2022-12-17T21:41:18.040Z,-1.50
2022-12-17T21:43:45.318Z,-1.50
2022-12-17T21:46:12.937Z,-1.40
2022-12-17T21:48:42.606Z,-1.40
2022-12-17T21:51:12.226Z,-1.50
2022-12-17T21:53:42.728Z,-1.60
2022-12-17T21:56:17.983Z,-1.70
2022-12-17T21:58:46.477Z,-1.80
2022-12-17T22:01:23.058Z,-1.70
2022-12-17T22:03:54.013Z,-1.70
2022-12-17T22:06:23.773Z,-1.60
2022-12-17T22:08:54.530Z,-1.60
2022-12-17T22:11:28.268Z,-1.60
2022-12-17T22:14:18.682Z,-1.80
2022-12-17T22:16:49.171Z,-1.90
2022-12-17T22:19:22.955Z,-2.00
2022-12-17T22:21:50.455Z,-2.00
2022-12-17T22:24:20.701Z,-2.00
2022-12-17T22:26:48.332Z,-2.00
2022-12-17T22:29:34.815Z,-2.10
2022-12-17T22:32:27.940Z,-2.10
2022-12-17T22:35:56.874Z,-2.20
2022-12-17T22:41:53.405Z,-2.20
2022-12-17T22:44:37.947Z,-2.30
2022-12-17T22:44:49.261Z,-2.20
2022-12-17T22:46:19.883Z,-2.30
2022-12-17T22:48:47.245Z,-2.30
2022-12-17T22:51:17.829Z,-2.30
2022-12-17T22:53:54.002Z,-2.30
2022-12-17T22:56:57.949Z,-2.30
2022-12-17T22:59:17.685Z,-2.40
2022-12-17T23:01:46.255Z,-2.40
2022-12-17T23:04:15.897Z,-2.50
2022-12-17T23:06:45.320Z,-2.50
2022-12-17T23:09:18.912Z,-2.50
2022-12-17T23:11:47.245Z,-2.60
2022-12-17T23:14:14.144Z,-2.60
2022-12-17T23:16:42.985Z,-2.70
2022-12-17T23:19:10.272Z,-2.70
2022-12-17T23:21:37.019Z,-2.70
2022-12-17T23:24:04.648Z,-2.70
2022-12-17T23:26:34.602Z,-2.70
2022-12-17T23:29:07.658Z,-2.80
2022-12-17T23:31:38.608Z,-2.90
2022-12-17T23:34:06.015Z,-2.90
2022-12-17T23:36:33.133Z,-2.90
2022-12-17T23:39:00.317Z,-2.90
2022-12-17T23:41:29.917Z,-2.90
2022-12-17T23:43:58.282Z,-2.90
2022-12-17T23:46:29.709Z,-2.90
2022-12-17T23:48:57.193Z,-3.00
2022-12-17T23:51:24.461Z,-3.00
2022-12-17T23:53:51.365Z,-3.10
2022-12-17T23:56:23.559Z,-3.10
2022-12-17T23:58:55.974Z,-3.00
